Time;durP1;ratioP1;P1;durP2;ratioP2;P2;SDS_P1;SDS_P2;PMS_P1;PMS_P2;Temp;Humidity;BMP_temperature;BMP_pressure;BME280_temperature;BME280_humidity;BME280_pressure;Samples;Min_cycle;Max_cycle;Signal;HPM_P1;HPM_P2
2022/02/23 00:01:32;;;;;;;;;;;;;;;5.25;96.06;99447.31;5054956;28;894;-65
2022/02/23 00:03:59;;;;;;;;;;;;;;;5.25;95.79;99441.81;5055108;28;827;-65
2022/02/23 00:06:26;;;;;;;;;;;;;;;5.26;95.39;99423.44;5055233;28;807;-66
2022/02/23 00:08:52;;;;;;;;;;;;;;;5.24;95.84;99447.66;5055232;28;894;-65
2022/02/23 00:11:19;;;;;;;;;;;;;;;5.21;95.82;99451.97;5054900;28;855;-66
2022/02/23 00:13:45;;;;;;;;;;;;;;;5.16;96.19;99438.56;5055002;28;906;-65
2022/02/23 00:16:13;;;;;;;;;;;;;;;5.20;95.83;99444.09;5054817;28;906;-67
2022/02/23 00:18:39;;;;;;;;;;;;;;;5.19;96.56;99445.28;5054567;28;1969;-64
2022/02/23 00:21:05;;;;;;;;;;;;;;;5.20;96.28;99449.59;5054716;28;922;-64
2022/02/23 00:35:43;;;;;;;;;;;;;;;5.18;96.38;99455.44;5054813;28;609;-64
2022/02/23 00:38:10;;;;;;;;;;;;;;;5.18;97.14;99468.34;5054416;28;1902;-66
2022/02/23 00:40:36;;;;;;;;;;;;;;;5.19;96.51;99473.47;5054363;28;791;-66
2022/02/23 00:43:06;;;;;;;;;;;;;;;5.21;96.00;99460.19;5054345;28;866;-66
2022/02/23 00:45:32;;;;;;;;;;;;;;;5.17;96.77;99470.31;5054490;28;854;-69
2022/02/23 00:47:59;;;;;;;;;;;;;;;5.16;96.35;99468.72;5054270;28;863;-68
2022/02/23 00:50:28;;;;;;;;;;;;;;;5.17;96.59;99469.53;5054273;28;830;-69
2022/02/23 00:52:54;;;;;;;;;;;;;;;5.17;95.82;99475.00;5054170;28;899;-67
2022/02/23 00:55:20;;;;;;;;;;;;;;;5.13;96.68;99477.69;5052896;28;1301;-66
2022/02/23 00:57:47;;;;;;;;;;;;;;;5.12;96.92;99473.34;5054105;28;1898;-66
2022/02/23 01:00:13;;;;;;;;;;;;;;;5.08;96.86;99503.47;5053949;28;823;-67
2022/02/23 01:02:40;;;;;;;;;;;;;;;5.11;96.79;99478.06;5053180;28;950;-68
2022/02/23 01:05:07;;;;;;;;;;;;;;;5.10;96.77;99486.66;5054008;28;815;-67
2022/02/23 01:07:33;;;;;;;;;;;;;;;5.06;96.89;99496.78;5053856;28;851;-67
2022/02/23 01:10:00;;;;;;;;;;;;;;;5.09;97.10;99460.41;5052622;28;1248;-66
2022/02/23 01:12:27;;;;;;;;;;;;;;;5.04;96.98;99490.91;5053800;28;935;-67
2022/02/23 01:14:53;;;;;;;;;;;;;;;5.03;97.09;99479.13;5053848;28;890;-65
2022/02/23 01:17:19;;;;;;;;;;;;;;;5.05;97.32;99497.94;5053367;28;1213;-68
2022/02/23 11:34:53;;;;;;;;;;;;;;;8.86;62.94;99905.78;5044654;28;1405;-59
2022/02/23 11:37:21;;;;;;;;;;;;;;;8.83;60.80;99914.81;5051369;28;894;-58
2022/02/23 11:39:50;;;;;;;;;;;;;;;8.94;61.40;99905.41;5051300;28;1979;-58
2022/02/23 11:42:22;;;;;;;;;;;;;;;9.12;61.91;99919.25;5051284;28;850;-59
2022/02/23 11:44:51;;;;;;;;;;;;;;;9.22;61.38;99930.69;5051383;28;851;-59
2022/02/23 11:47:21;;;;;;;;;;;;;;;9.54;60.40;99931.56;5053249;28;855;-59
2022/02/23 11:49:55;;;;;;;;;;;;;;;9.57;59.99;99927.22;5055333;28;935;-58
2022/02/23 11:52:23;;;;;;;;;;;;;;;9.64;59.81;99923.66;5055649;28;839;-57
2022/02/23 11:54:55;;;;;;;;;;;;;;;9.58;59.71;99923.25;5055342;28;926;-59
2022/02/23 11:57:42;;;;;;;;;;;;;;;9.83;61.05;99923.28;5055631;28;823;-59
2022/02/23 12:00:09;;;;;;;;;;;;;;;9.84;58.97;99941.44;5055791;28;1945;-58
2022/02/23 12:02:36;;;;;;;;;;;;;;;9.68;58.98;99922.47;5055600;28;877;-59
2022/02/23 12:05:03;;;;;;;;;;;;;;;9.52;59.01;99924.84;5055498;28;874;-59
2022/02/23 12:07:48;;;;;;;;;;;;;;;9.32;59.45;99921.66;5054270;28;784;-59
2022/02/23 12:10:16;;;;;;;;;;;;;;;9.23;59.05;99937.78;5055000;28;925;-58
2022/02/23 12:12:44;;;;;;;;;;;;;;;9.15;59.81;99946.06;5055040;28;874;-59
2022/02/23 12:15:30;;;;;;;;;;;;;;;9.10;60.81;99949.16;5055077;28;819;-59
2022/02/23 12:18:01;;;;;;;;;;;;;;;9.18;60.36;99956.28;5055078;28;1806;-58
2022/02/23 12:20:41;;;;;;;;;;;;;;;9.09;59.80;99953.13;5055450;28;1940;-59
2022/02/23 12:23:29;;;;;;;;;;;;;;;8.93;59.90;99945.16;5055127;28;981;-59
2022/02/23 12:25:57;;;;;;;;;;;;;;;8.96;61.60;99952.69;5055097;28;831;-59
2022/02/23 12:28:24;;;;;;;;;;;;;;;8.82;60.84;99960.88;5054760;28;878;-59
2022/02/23 12:30:51;;;;;;;;;;;;;;;8.67;61.88;99959.22;5054673;28;917;-58
2022/02/23 12:33:17;;;;;;;;;;;;;;;8.51;62.45;99956.75;5054333;28;1388;-59
2022/02/23 12:35:44;;;;;;;;;;;;;;;8.53;63.38;99959.94;5054824;28;870;-59
2022/02/23 12:38:11;;;;;;;;;;;;;;;8.49;63.69;99959.94;5069937;28;911;-59
2022/02/23 12:40:39;;;;;;;;;;;;;;;8.40;63.17;99959.44;5054554;28;1910;-60
2022/02/23 12:43:06;;;;;;;;;;;;;;;8.34;64.05;99949.94;5054434;28;859;-59
2022/02/23 12:45:33;;;;;;;;;;;;;;;8.15;65.37;99953.75;5054417;28;823;-59
2022/02/23 12:48:01;;;;;;;;;;;;;;;8.03;66.30;99968.59;5054492;28;897;-60
2022/02/23 12:50:27;;;;;;;;;;;;;;;7.92;66.11;99974.03;5054226;28;934;-59
2022/02/23 12:52:55;;;;;;;;;;;;;;;7.82;66.35;99969.22;5054346;28;811;-60
2022/02/23 12:55:22;;;;;;;;;;;;;;;7.71;67.44;99969.13;5054211;28;839;-59
2022/02/23 12:57:52;;;;;;;;;;;;;;;7.67;68.38;99970.25;5052294;28;852;-59
2022/02/23 13:00:22;;;;;;;;;;;;;;;7.61;67.69;99972.56;5053716;28;1914;-59
2022/02/23 13:02:48;;;;;;;;;;;;;;;7.51;67.63;99957.53;5054431;28;831;-59
2022/02/23 13:05:17;;;;;;;;;;;;;;;7.46;69.72;99982.63;5054181;28;913;-59
2022/02/23 13:07:44;;;;;;;;;;;;;;;7.45;68.43;99992.06;5054123;28;827;-59
2022/02/23 13:10:10;;;;;;;;;;;;;;;7.35;66.98;99979.75;5052872;28;973;-59
2022/02/23 13:12:37;;;;;;;;;;;;;;;7.32;66.76;99983.28;5054209;28;827;-59
2022/02/23 13:15:05;;;;;;;;;;;;;;;7.28;67.63;99979.69;5054692;28;862;-59
2022/02/23 13:17:32;;;;;;;;;;;;;;;7.26;66.42;99989.47;5054034;28;1094;-59
2022/02/23 13:19:59;;;;;;;;;;;;;;;7.26;67.02;99981.25;5053866;28;1949;-58
2022/02/23 13:22:31;;;;;;;;;;;;;;;7.23;67.18;99954.47;5054014;28;878;-58
2022/02/23 13:24:58;;;;;;;;;;;;;;;7.16;66.92;99985.44;5053936;28;854;-59
2022/02/23 13:27:27;;;;;;;;;;;;;;;7.11;67.65;99983.03;5053742;28;882;-59
2022/02/23 13:29:55;;;;;;;;;;;;;;;7.10;67.24;99975.94;5053594;28;842;-59
2022/02/23 13:32:26;;;;;;;;;;;;;;;7.06;67.83;99995.16;5053814;28;875;-58
2022/02/23 13:34:54;;;;;;;;;;;;;;;7.03;67.57;99978.59;5053282;28;1241;-58
2022/02/23 13:37:28;;;;;;;;;;;;;;;6.98;68.84;99990.72;5053722;28;849;-59
2022/02/23 13:39:58;;;;;;;;;;;;;;;6.94;68.78;99995.38;5053516;28;1914;-59
2022/02/23 13:42:31;;;;;;;;;;;;;;;6.89;69.13;99988.25;5053387;28;1750;-59
2022/02/23 13:45:00;;;;;;;;;;;;;;;6.88;67.54;99997.66;5053360;28;800;-58
2022/02/23 13:47:28;;;;;;;;;;;;;;;6.84;68.21;100001.53;5053063;28;925;-58
2022/02/23 13:49:59;;;;;;;;;;;;;;;6.84;67.99;99998.78;5051922;28;1277;-59
2022/02/23 13:52:30;;;;;;;;;;;;;;;6.81;68.28;99999.53;5053295;28;795;-58
2022/02/23 13:55:08;;;;;;;;;;;;;;;6.78;68.29;100006.53;5053309;28;765;-58
2022/02/23 13:57:40;;;;;;;;;;;;;;;6.79;67.87;100008.13;5053156;28;846;-59
2022/02/23 14:00:09;;;;;;;;;;;;;;;6.80;69.03;100004.22;5052895;28;1943;-59
2022/02/23 14:02:35;;;;;;;;;;;;;;;6.77;68.55;100013.22;5052840;28;878;-59
2022/02/23 14:05:11;;;;;;;;;;;;;;;6.77;67.84;100004.97;5053007;28;810;-59
2022/02/23 14:07:39;;;;;;;;;;;;;;;6.80;68.99;100022.66;5052796;28;898;-59
2022/02/23 14:10:08;;;;;;;;;;;;;;;6.81;69.23;100016.00;5052629;28;866;-59
2022/02/23 14:12:35;;;;;;;;;;;;;;;6.79;67.80;100030.13;5052746;28;796;-59
2022/02/23 14:15:02;;;;;;;;;;;;;;;6.81;68.29;100030.53;5052717;28;834;-59
2022/02/23 14:17:29;;;;;;;;;;;;;;;6.84;67.72;100040.00;5052775;28;939;-59
2022/02/23 14:20:09;;;;;;;;;;;;;;;6.88;69.32;100047.13;5052626;28;1957;-59
2022/02/23 14:22:38;;;;;;;;;;;;;;;6.81;69.06;100044.28;5053386;28;763;-59
2022/02/23 14:25:06;;;;;;;;;;;;;;;6.81;68.08;100046.25;5052591;28;898;-59
2022/02/23 14:27:34;;;;;;;;;;;;;;;6.86;67.95;100048.66;5052454;28;1045;-59
2022/02/23 14:30:01;;;;;;;;;;;;;;;6.90;69.05;100052.25;5052432;28;803;-59
2022/02/23 14:32:29;;;;;;;;;;;;;;;6.87;68.09;100055.72;5052340;28;867;-59
2022/02/23 14:35:02;;;;;;;;;;;;;;;6.89;68.58;100048.72;5052124;28;1305;-59
2022/02/23 14:37:30;;;;;;;;;;;;;;;6.85;69.43;100058.84;5052222;28;859;-59
2022/02/23 14:40:00;;;;;;;;;;;;;;;6.84;68.53;100061.97;5052220;28;1914;-59
2022/02/23 14:42:28;;;;;;;;;;;;;;;6.83;69.23;100052.94;5052156;28;885;-58
2022/02/23 14:44:54;;;;;;;;;;;;;;;6.81;69.32;100059.97;5052120;28;815;-59
2022/02/23 14:47:21;;;;;;;;;;;;;;;6.79;69.46;100062.31;5052157;28;818;-59
2022/02/23 14:49:47;;;;;;;;;;;;;;;6.79;69.58;100048.56;5067586;28;831;-59
2022/02/23 14:52:14;;;;;;;;;;;;;;;6.79;68.90;100054.84;5052141;28;898;-59
2022/02/23 14:54:40;;;;;;;;;;;;;;;6.80;68.97;100052.88;5051999;28;925;-59
2022/02/23 14:57:12;;;;;;;;;;;;;;;6.80;69.27;100067.41;5051977;28;890;-59
2022/02/23 14:59:39;;;;;;;;;;;;;;;6.75;70.70;100060.28;5052091;28;1886;-59
2022/02/23 15:02:07;;;;;;;;;;;;;;;6.77;69.64;100064.63;5051859;28;1053;-59
2022/02/23 15:04:34;;;;;;;;;;;;;;;6.78;68.80;100064.22;5051864;28;799;-59
2022/02/23 15:07:01;;;;;;;;;;;;;;;6.75;70.04;100056.75;5051777;28;913;-59
2022/02/23 15:09:27;;;;;;;;;;;;;;;6.75;69.73;100086.97;5051754;28;838;-59
2022/02/23 15:11:54;;;;;;;;;;;;;;;6.79;69.27;100084.28;5051637;28;820;-59
2022/02/23 15:14:21;;;;;;;;;;;;;;;6.75;69.83;100079.50;5051603;28;910;-59
2022/02/23 15:16:48;;;;;;;;;;;;;;;6.74;69.46;100077.94;5051712;28;891;-59
2022/02/23 15:19:14;;;;;;;;;;;;;;;6.72;70.00;100082.19;5051594;28;1949;-59
2022/02/23 15:21:41;;;;;;;;;;;;;;;6.70;69.79;100073.53;5050954;28;992;-59
2022/02/23 15:24:07;;;;;;;;;;;;;;;6.73;69.90;100087.31;5051530;28;795;-59
2022/02/23 15:26:32;;;;;;;;;;;;;;;6.71;70.28;100075.91;5051492;28;884;-59
2022/02/23 15:28:59;;;;;;;;;;;;;;;6.67;70.35;100083.31;5051546;28;842;-59
2022/02/23 15:31:28;;;;;;;;;;;;;;;6.68;70.38;100089.59;5051493;28;914;-59
2022/02/23 15:33:54;;;;;;;;;;;;;;;6.64;71.55;100083.25;5051168;28;1388;-59
2022/02/23 15:36:20;;;;;;;;;;;;;;;6.64;71.30;100091.50;5051447;28;901;-59
2022/02/23 15:38:47;;;;;;;;;;;;;;;6.64;71.66;100083.25;5051231;28;1914;-59
2022/02/23 15:41:14;;;;;;;;;;;;;;;6.60;71.72;100091.44;5051444;28;827;-59
2022/02/23 15:43:41;;;;;;;;;;;;;;;6.61;71.96;100093.00;5051277;28;921;-59
2022/02/23 15:46:07;;;;;;;;;;;;;;;6.55;72.28;100097.25;5051334;28;879;-59
2022/02/23 15:48:34;;;;;;;;;;;;;;;6.57;71.28;100091.38;5051356;28;827;-59
2022/02/23 15:51:01;;;;;;;;;;;;;;;6.58;71.63;100103.97;5051297;28;846;-59
2022/02/23 15:53:27;;;;;;;;;;;;;;;6.59;71.61;100100.81;5051203;28;886;-59
2022/02/23 15:55:54;;;;;;;;;;;;;;;6.64;71.46;100102.50;5051194;28;881;-59
2022/02/23 15:58:21;;;;;;;;;;;;;;;6.63;70.14;100096.19;5051314;28;874;-59
2022/02/23 16:00:47;;;;;;;;;;;;;;;6.65;70.66;100106.81;5051123;28;1945;-59
2022/02/23 16:03:14;;;;;;;;;;;;;;;6.66;70.27;100105.66;5051400;28;854;-59
2022/02/23 16:05:40;;;;;;;;;;;;;;;6.66;70.15;100105.66;5051186;28;1185;-59
2022/02/23 16:08:06;;;;;;;;;;;;;;;6.64;70.04;100117.00;5051060;28;922;-59
2022/02/23 16:10:32;;;;;;;;;;;;;;;6.67;69.35;100105.28;5049859;28;867;-58
2022/02/23 16:12:59;;;;;;;;;;;;;;;6.67;69.17;100108.03;5050997;28;930;-59
2022/02/23 16:15:25;;;;;;;;;;;;;;;6.59;70.48;100108.28;5051161;28;913;-59
2022/02/23 16:17:52;;;;;;;;;;;;;;;6.53;70.26;100118.81;5051295;28;1062;-59
2022/02/23 16:20:19;;;;;;;;;;;;;;;6.52;70.49;100128.19;5050996;28;1953;-59
2022/02/23 16:22:45;;;;;;;;;;;;;;;6.51;70.70;100116.41;5050990;28;874;-59
2022/02/23 16:25:11;;;;;;;;;;;;;;;6.47;72.06;100123.78;5050883;28;922;-59
2022/02/23 16:27:38;;;;;;;;;;;;;;;6.40;71.89;100133.84;5051011;28;893;-59
2022/02/23 16:30:06;;;;;;;;;;;;;;;6.38;72.30;100128.75;5050943;28;870;-59
2022/02/23 16:32:32;;;;;;;;;;;;;;;6.37;71.75;100137.34;5051618;28;902;-59
2022/02/23 16:34:59;;;;;;;;;;;;;;;6.32;73.06;100139.22;5054457;28;1092;-59
2022/02/23 16:37:26;;;;;;;;;;;;;;;6.36;72.87;100144.78;5054616;28;903;-59
2022/02/23 16:39:52;;;;;;;;;;;;;;;6.31;72.96;100148.59;5054488;28;1942;-59
2022/02/23 16:42:19;;;;;;;;;;;;;;;6.32;72.94;100144.72;5054489;28;792;-59
2022/02/23 16:44:47;;;;;;;;;;;;;;;6.31;73.36;100148.59;5054336;28;921;-59
2022/02/23 16:47:14;;;;;;;;;;;;;;;6.36;72.95;100153.03;5054535;28;866;-59
2022/02/23 16:49:39;;;;;;;;;;;;;;;6.36;72.98;100168.69;5054351;28;833;-59
2022/02/23 16:52:06;;;;;;;;;;;;;;;6.36;73.42;100164.00;5054400;28;859;-59
2022/02/23 16:54:32;;;;;;;;;;;;;;;6.37;73.86;100173.81;5054186;28;945;-59
2022/02/23 16:56:59;;;;;;;;;;;;;;;6.39;73.94;100174.25;5054475;28;847;-59
2022/02/23 16:59:25;;;;;;;;;;;;;;;6.35;73.83;100176.13;5054668;28;1937;-59
2022/02/23 17:01:52;;;;;;;;;;;;;;;6.36;73.15;100179.66;5054414;28;1166;-59
2022/02/23 17:04:18;;;;;;;;;;;;;;;6.33;73.69;100181.19;5054520;28;882;-59
2022/02/23 17:06:46;;;;;;;;;;;;;;;6.30;73.63;100179.97;5054747;28;776;-59
2022/02/23 17:09:13;;;;;;;;;;;;;;;6.31;73.71;100192.53;5054142;28;876;-59
2022/02/23 17:11:41;;;;;;;;;;;;;;;6.31;74.16;100187.03;5054237;28;935;-59
2022/02/23 17:14:08;;;;;;;;;;;;;;;6.28;73.29;100185.03;5054000;28;902;-59
2022/02/23 17:16:35;;;;;;;;;;;;;;;6.32;73.31;100185.13;5054121;28;867;-58
2022/02/23 17:19:01;;;;;;;;;;;;;;;6.30;73.29;100190.97;5053996;28;1890;-58
2022/02/23 17:21:28;;;;;;;;;;;;;;;6.26;73.80;100192.06;5053897;28;907;-59
2022/02/23 17:23:54;;;;;;;;;;;;;;;6.27;73.71;100199.94;5054441;28;865;-59
2022/02/23 17:26:21;;;;;;;;;;;;;;;6.40;72.27;100186.84;5053764;28;823;-59
2022/02/23 17:28:47;;;;;;;;;;;;;;;6.49;72.28;100195.63;5054243;28;835;-59
2022/02/23 17:31:13;;;;;;;;;;;;;;;6.50;71.92;100194.44;5053543;28;883;-59
2022/02/23 17:33:41;;;;;;;;;;;;;;;6.49;72.30;100192.09;5053215;28;1205;-59
2022/02/23 17:36:08;;;;;;;;;;;;;;;6.49;72.86;100203.06;5053490;28;843;-59
2022/02/23 17:38:36;;;;;;;;;;;;;;;6.52;71.92;100202.34;5053682;28;1955;-59
2022/02/23 17:41:03;;;;;;;;;;;;;;;6.59;70.29;100196.94;5053977;28;787;-59
2022/02/23 17:43:29;;;;;;;;;;;;;;;6.62;69.89;100201.72;5053367;28;1225;-58
2022/02/23 17:45:59;;;;;;;;;;;;;;;6.57;71.18;100201.22;5052937;28;811;-58
2022/02/23 17:48:26;;;;;;;;;;;;;;;6.51;71.96;100211.75;5053301;28;863;-59
2022/02/23 17:50:54;;;;;;;;;;;;;;;6.44;72.02;100206.88;5053283;28;1550;-58
2022/02/23 17:53:20;;;;;;;;;;;;;;;6.40;70.27;100208.00;5053197;28;933;-58
2022/02/23 17:55:47;;;;;;;;;;;;;;;6.39;70.40;100204.47;5053233;28;840;-58
2022/02/23 17:58:13;;;;;;;;;;;;;;;6.36;71.28;100209.88;5053375;28;822;-58
2022/02/23 18:00:40;;;;;;;;;;;;;;;6.35;71.19;100203.59;5053251;28;1949;-58
2022/02/23 18:03:07;;;;;;;;;;;;;;;6.33;71.51;100208.66;5053298;28;891;-58
2022/02/23 18:05:34;;;;;;;;;;;;;;;6.33;70.89;100209.44;5053138;28;894;-60
2022/02/23 18:08:00;;;;;;;;;;;;;;;6.33;72.06;100209.44;5053065;28;874;-58
2022/02/23 18:10:27;;;;;;;;;;;;;;;6.36;72.34;100218.09;5053251;28;828;-58
2022/02/23 18:12:53;;;;;;;;;;;;;;;6.41;72.41;100228.81;5052740;28;1224;-59
2022/02/23 18:15:20;;;;;;;;;;;;;;;6.44;72.04;100234.34;5052667;28;905;-59
2022/02/23 18:17:46;;;;;;;;;;;;;;;6.41;73.41;100228.81;5053046;28;1059;-59
2022/02/23 18:20:17;;;;;;;;;;;;;;;6.37;71.70;100228.72;5052553;28;1909;-59
2022/02/23 18:22:43;;;;;;;;;;;;;;;6.36;71.27;100234.59;5052796;28;925;-59
2022/02/23 18:25:10;;;;;;;;;;;;;;;6.39;71.55;100228.38;5052749;28;890;-59
2022/02/23 18:27:37;;;;;;;;;;;;;;;6.38;72.94;100233.09;5052752;28;870;-59
2022/02/23 18:30:03;;;;;;;;;;;;;;;6.36;74.40;100229.91;5052676;28;815;-59
2022/02/23 18:32:30;;;;;;;;;;;;;;;6.36;74.84;100229.91;5052875;28;1161;-59
2022/02/23 18:34:55;;;;;;;;;;;;;;;6.35;75.65;100228.31;5052297;28;1242;-59
2022/02/23 18:37:21;;;;;;;;;;;;;;;6.31;76.73;100230.19;5052438;28;866;-59
2022/02/23 18:39:48;;;;;;;;;;;;;;;6.27;78.18;100224.66;5051063;28;1922;-59
2022/02/23 18:42:14;;;;;;;;;;;;;;;6.28;78.01;100225.44;5052477;28;854;-59
2022/02/23 18:44:42;;;;;;;;;;;;;;;6.31;77.57;100228.22;5050856;28;831;-59
2022/02/23 18:47:09;;;;;;;;;;;;;;;6.30;78.70;100223.91;5052235;28;889;-59
2022/02/23 18:49:36;;;;;;;;;;;;;;;6.27;78.93;100224.66;5052133;28;874;-59
2022/02/23 18:52:02;;;;;;;;;;;;;;;6.21;79.11;100226.09;5052018;28;878;-59
2022/02/23 18:54:29;;;;;;;;;;;;;;;6.18;79.34;100229.53;5052030;28;842;-59
2022/02/23 18:56:55;;;;;;;;;;;;;;;6.15;79.20;100227.53;5051176;28;827;-59
2022/02/23 18:59:22;;;;;;;;;;;;;;;6.10;79.36;100222.31;5051851;28;1961;-59
2022/02/23 19:01:49;;;;;;;;;;;;;;;6.04;77.34;100221.03;5051855;28;894;-59
2022/02/23 19:04:15;;;;;;;;;;;;;;;6.03;76.58;100213.97;5051806;28;925;-59
2022/02/23 19:06:42;;;;;;;;;;;;;;;6.04;76.21;100212.78;5051831;28;997;-59
2022/02/23 19:09:10;;;;;;;;;;;;;;;6.02;74.86;100209.63;5051753;28;799;-59
2022/02/23 19:11:37;;;;;;;;;;;;;;;6.07;74.44;100214.81;5051728;28;874;-59
2022/02/23 19:14:04;;;;;;;;;;;;;;;6.11;75.01;100212.94;5051610;28;1067;-59
2022/02/23 19:16:30;;;;;;;;;;;;;;;6.23;74.34;100221.03;5067237;28;940;-59
2022/02/23 19:18:56;;;;;;;;;;;;;;;6.34;72.42;100219.28;5051504;28;1956;-59
2022/02/23 19:21:23;;;;;;;;;;;;;;;6.50;71.13;100223.88;5051617;28;843;-59
2022/02/23 19:23:49;;;;;;;;;;;;;;;6.53;71.56;100217.66;5051542;28;925;-59
2022/02/23 19:26:16;;;;;;;;;;;;;;;6.53;70.90;100226.69;5051501;28;850;-59
2022/02/23 19:28:42;;;;;;;;;;;;;;;6.47;71.89;100230.09;5051601;28;802;-59
2022/02/23 19:31:09;;;;;;;;;;;;;;;6.39;72.10;100226.41;5051451;28;859;-59
2022/02/23 19:33:36;;;;;;;;;;;;;;;6.33;72.76;100231.41;5051220;28;1459;-59
2022/02/23 19:36:02;;;;;;;;;;;;;;;6.32;72.94;100224.34;5051391;28;937;-59
2022/02/23 19:38:28;;;;;;;;;;;;;;;6.33;73.60;100230.63;5051527;28;871;-59
2022/02/23 19:40:55;;;;;;;;;;;;;;;6.36;74.11;100231.84;5051156;28;1914;-59
2022/02/23 19:43:22;;;;;;;;;;;;;;;6.39;74.50;100231.91;5051374;28;898;-59
2022/02/23 19:45:48;;;;;;;;;;;;;;;6.36;75.77;100229.09;5051278;28;921;-59
2022/02/23 19:48:15;;;;;;;;;;;;;;;6.29;75.97;100221.50;5051597;28;848;-59
2022/02/23 19:50:42;;;;;;;;;;;;;;;6.24;77.43;100221.81;5051325;28;823;-59
2022/02/23 19:53:10;;;;;;;;;;;;;;;6.18;77.52;100213.06;5066598;28;866;-59
2022/02/23 19:55:36;;;;;;;;;;;;;;;6.13;78.32;100213.38;5051235;28;933;-59
2022/02/23 19:58:04;;;;;;;;;;;;;;;6.10;78.40;100205.84;5051188;28;1721;-59
2022/02/23 20:00:32;;;;;;;;;;;;;;;6.07;78.11;100207.38;5051142;28;1886;-59
2022/02/23 20:02:59;;;;;;;;;;;;;;;5.95;78.86;100202.03;5051218;28;889;-59
2022/02/23 20:05:25;;;;;;;;;;;;;;;5.73;77.95;100209.00;5051139;28;877;-59
2022/02/23 20:07:52;;;;;;;;;;;;;;;5.50;79.18;100211.63;5052403;28;903;-59
2022/02/23 20:10:22;;;;;;;;;;;;;;;5.28;80.22;100213.91;5055021;28;834;-59
2022/02/23 20:12:49;;;;;;;;;;;;;;;5.13;80.55;100217.47;5055054;28;917;-59
2022/02/23 20:15:15;;;;;;;;;;;;;;;5.07;81.13;100219.69;5055046;28;847;-59
2022/02/23 20:17:41;;;;;;;;;;;;;;;5.16;81.98;100213.22;5055300;28;887;-59
2022/02/23 20:20:08;;;;;;;;;;;;;;;5.13;81.50;100214.72;5054952;28;1991;-59
2022/02/23 20:22:35;;;;;;;;;;;;;;;5.07;82.01;100208.72;5055140;28;877;-59
2022/02/23 20:25:01;;;;;;;;;;;;;;;5.01;82.38;100212.09;5055088;28;807;-59
2022/02/23 20:27:28;;;;;;;;;;;;;;;4.93;83.61;100210.31;5055085;28;870;-59
2022/02/23 20:29:54;;;;;;;;;;;;;;;4.88;84.13;100208.63;5054849;28;815;-59
2022/02/23 20:32:21;;;;;;;;;;;;;;;4.89;84.57;100211.03;5054965;28;854;-59
2022/02/23 20:34:48;;;;;;;;;;;;;;;4.82;85.70;100199.09;5054570;28;1275;-59
2022/02/23 20:37:15;;;;;;;;;;;;;;;4.76;86.53;100203.25;5054605;28;965;-59
2022/02/23 20:39:42;;;;;;;;;;;;;;;4.70;87.53;100206.25;5070022;28;1969;-59
2022/02/23 20:42:09;;;;;;;;;;;;;;;4.65;88.03;100201.06;5054568;28;815;-59
2022/02/23 20:44:35;;;;;;;;;;;;;;;4.60;88.80;100203.25;5054506;28;877;-59
2022/02/23 20:47:02;;;;;;;;;;;;;;;4.55;89.72;100207.06;5054517;28;870;-59
2022/02/23 20:49:28;;;;;;;;;;;;;;;4.53;90.17;100205.81;5054419;28;1304;-59
2022/02/23 20:51:56;;;;;;;;;;;;;;;4.51;91.10;100203.41;5054561;28;862;-59
2022/02/23 20:54:23;;;;;;;;;;;;;;;4.48;91.75;100196.72;5069634;28;831;-59
2022/02/23 20:56:50;;;;;;;;;;;;;;;4.46;92.57;100195.47;5054188;28;894;-59
2022/02/23 20:59:16;;;;;;;;;;;;;;;4.44;92.71;100197.78;5054306;28;1886;-59
2022/02/23 21:01:45;;;;;;;;;;;;;;;4.42;93.33;100197.31;5054206;28;807;-59
2022/02/23 21:04:12;;;;;;;;;;;;;;;4.41;93.70;100198.47;5054106;28;898;-59
2022/02/23 21:06:39;;;;;;;;;;;;;;;4.40;93.63;100197.66;5054282;28;945;-59
2022/02/23 21:09:06;;;;;;;;;;;;;;;4.40;94.11;100194.16;5053886;28;926;-59
2022/02/23 21:11:32;;;;;;;;;;;;;;;4.39;94.39;100189.81;5054018;28;807;-59
2022/02/23 21:13:59;;;;;;;;;;;;;;;4.37;94.77;100200.31;5053957;28;901;-59
2022/02/23 21:16:25;;;;;;;;;;;;;;;4.37;94.49;100184.66;5053915;28;1006;-59
2022/02/23 21:18:52;;;;;;;;;;;;;;;4.39;94.71;100196.06;5053447;28;1882;-59
2022/02/23 21:21:19;;;;;;;;;;;;;;;4.38;94.93;100193.69;5053537;28;838;-59
2022/02/23 21:23:47;;;;;;;;;;;;;;;4.31;95.27;100197.06;5053834;28;823;-59
2022/02/23 21:26:14;;;;;;;;;;;;;;;4.29;95.69;100193.88;5053750;28;928;-59
2022/02/23 21:28:40;;;;;;;;;;;;;;;4.28;95.65;100195.78;5053619;28;925;-59
2022/02/23 21:31:07;;;;;;;;;;;;;;;4.26;95.96;100200.81;5052407;28;1490;-59
2022/02/23 21:33:33;;;;;;;;;;;;;;;4.25;96.02;100201.97;5053247;28;1280;-59
2022/02/23 21:35:59;;;;;;;;;;;;;;;4.25;96.37;100207.44;5069021;28;838;-59
2022/02/23 21:38:26;;;;;;;;;;;;;;;4.26;96.68;100202.75;5053387;28;851;-59
2022/02/23 21:40:52;;;;;;;;;;;;;;;4.27;96.52;100196.94;5053403;28;1918;-59
2022/02/23 21:43:19;;;;;;;;;;;;;;;4.29;96.84;100193.88;5053445;28;787;-59
2022/02/23 21:45:45;;;;;;;;;;;;;;;4.30;96.53;100190.75;5068826;28;858;-59
2022/02/23 21:48:11;;;;;;;;;;;;;;;4.32;96.34;100182.22;5053385;28;1027;-59
2022/02/23 21:50:38;;;;;;;;;;;;;;;4.33;96.23;100177.53;5053492;28;894;-59
2022/02/23 21:53:05;;;;;;;;;;;;;;;4.31;96.15;100175.16;5053367;28;1043;-59
2022/02/23 21:55:32;;;;;;;;;;;;;;;4.26;96.18;100176.19;5053280;28;834;-59
2022/02/23 21:57:59;;;;;;;;;;;;;;;4.21;96.26;100170.97;5053323;28;929;-59
2022/02/23 22:00:25;;;;;;;;;;;;;;;4.16;96.08;100167.69;5053598;28;1890;-59
2022/02/23 22:02:54;;;;;;;;;;;;;;;4.11;96.68;100166.00;5053317;28;811;-59
2022/02/23 22:05:23;;;;;;;;;;;;;;;4.07;96.64;100167.84;5053110;28;847;-59
2022/02/23 22:07:50;;;;;;;;;;;;;;;4.03;97.35;100159.56;5052836;28;937;-59
2022/02/23 22:10:17;;;;;;;;;;;;;;;4.01;97.66;100158.31;5052896;28;799;-59
2022/02/23 22:12:43;;;;;;;;;;;;;;;3.99;97.65;100155.13;5052860;28;870;-59
2022/02/23 22:15:10;;;;;;;;;;;;;;;3.98;97.47;100146.13;5053040;28;898;-59
2022/02/23 22:17:36;;;;;;;;;;;;;;;3.97;97.36;100154.69;5052916;28;958;-59
2022/02/23 22:20:05;;;;;;;;;;;;;;;3.99;97.42;100157.84;5052734;28;1959;-59
2022/02/23 22:22:32;;;;;;;;;;;;;;;3.99;97.67;100152.38;5052829;28;894;-59
2022/02/23 22:24:59;;;;;;;;;;;;;;;4.01;96.92;100147.38;5052702;28;878;-59
2022/02/23 22:27:25;;;;;;;;;;;;;;;4.05;96.81;100142.78;5052557;28;885;-59
2022/02/23 22:29:52;;;;;;;;;;;;;;;4.05;96.68;100145.53;5052619;28;894;-59
2022/02/23 22:32:18;;;;;;;;;;;;;;;4.06;96.51;100136.97;5052303;28;874;-59
2022/02/23 22:34:45;;;;;;;;;;;;;;;4.09;96.25;100130.78;5052298;28;1386;-59
2022/02/23 22:37:12;;;;;;;;;;;;;;;4.11;96.08;100138.66;5052226;28;878;-59
2022/02/23 22:39:39;;;;;;;;;;;;;;;4.15;95.59;100139.53;5052394;28;1917;-59
2022/02/23 22:42:05;;;;;;;;;;;;;;;4.24;95.78;100142.13;5052594;28;910;-59
2022/02/23 22:44:31;;;;;;;;;;;;;;;4.39;95.26;100154.22;5052522;28;811;-59
2022/02/23 22:46:58;;;;;;;;;;;;;;;4.47;93.07;100150.53;5052631;28;831;-59
2022/02/23 22:49:24;;;;;;;;;;;;;;;4.60;90.49;100154.75;5052330;28;859;-59
2022/02/23 22:51:52;;;;;;;;;;;;;;;4.66;85.57;100160.78;5053074;28;823;-59
2022/02/23 22:54:20;;;;;;;;;;;;;;;4.62;81.66;100157.16;5052223;28;901;-58
2022/02/23 22:56:46;;;;;;;;;;;;;;;4.40;82.37;100158.56;5052168;28;861;-59
2022/02/23 22:59:13;;;;;;;;;;;;;;;4.23;83.23;100157.75;5052164;28;1949;-59
2022/02/23 23:01:39;;;;;;;;;;;;;;;4.12;84.23;100148.47;5052405;28;867;-59
2022/02/23 23:04:06;;;;;;;;;;;;;;;4.08;84.69;100145.63;5052198;28;852;-59
2022/02/23 23:06:32;;;;;;;;;;;;;;;4.05;85.31;100149.06;5052099;28;1205;-59
2022/02/23 23:09:00;;;;;;;;;;;;;;;4.06;85.29;100152.59;5051826;28;847;-58
2022/02/23 23:11:28;;;;;;;;;;;;;;;4.02;85.36;100149.75;5052442;28;812;-59
2022/02/23 23:13:55;;;;;;;;;;;;;;;4.00;85.93;100149.31;5052216;28;964;-58
2022/02/23 23:16:23;;;;;;;;;;;;;;;3.98;87.15;100150.81;5052453;28;1044;-58
2022/02/23 23:18:49;;;;;;;;;;;;;;;3.97;88.10;100151.94;5051861;28;1890;-58
2022/02/23 23:21:16;;;;;;;;;;;;;;;3.95;88.47;100151.50;5051895;28;853;-59
2022/02/23 23:23:43;;;;;;;;;;;;;;;3.95;88.81;100152.31;5051858;28;934;-59
2022/02/23 23:26:09;;;;;;;;;;;;;;;3.96;89.02;100159.34;5051759;28;929;-58
2022/02/23 23:28:35;;;;;;;;;;;;;;;3.95;89.52;100152.31;5051919;28;920;-59
2022/02/23 23:31:02;;;;;;;;;;;;;;;3.95;90.27;100152.31;5051524;28;889;-59
2022/02/23 23:33:29;;;;;;;;;;;;;;;3.93;90.66;100153.81;5051370;28;1571;-59
2022/02/23 23:35:56;;;;;;;;;;;;;;;3.92;90.88;100150.25;5051420;28;846;-59